sensor_id;sensor_type;location;lat;lon;timestamp;temperature;humidity
20416;DHT22;10367;52.202;5.996;2023-04-06T00:00:24;2.10;99.90
20416;DHT22;10367;52.202;5.996;2023-04-06T00:02:53;2.20;99.90
20416;DHT22;10367;52.202;5.996;2023-04-06T00:05:22;2.20;99.90
20416;DHT22;10367;52.202;5.996;2023-04-06T00:07:51;2.20;99.90
20416;DHT22;10367;52.202;5.996;2023-04-06T00:10:21;2.10;99.90
20416;DHT22;10367;52.202;5.996;2023-04-06T00:12:50;2.00;99.90
20416;DHT22;10367;52.202;5.996;2023-04-06T00:15:20;1.90;99.90
20416;DHT22;10367;52.202;5.996;2023-04-06T00:17:49;2.00;99.90
20416;DHT22;10367;52.202;5.996;2023-04-06T00:20:18;2.00;99.90
20416;DHT22;10367;52.202;5.996;2023-04-06T00:22:47;2.00;99.90
20416;DHT22;10367;52.202;5.996;2023-04-06T00:25:16;2.00;99.90
20416;DHT22;10367;52.202;5.996;2023-04-06T00:27:45;2.00;99.90
20416;DHT22;10367;52.202;5.996;2023-04-06T00:30:14;1.80;99.90
20416;DHT22;10367;52.202;5.996;2023-04-06T00:32:44;1.70;99.90
20416;DHT22;10367;52.202;5.996;2023-04-06T00:35:13;1.60;99.90
20416;DHT22;10367;52.202;5.996;2023-04-06T00:37:42;1.60;99.90
20416;DHT22;10367;52.202;5.996;2023-04-06T00:40:11;1.50;99.90
20416;DHT22;10367;52.202;5.996;2023-04-06T00:42:40;1.60;99.90
20416;DHT22;10367;52.202;5.996;2023-04-06T00:45:10;1.60;99.90
20416;DHT22;10367;52.202;5.996;2023-04-06T00:47:39;1.60;99.90
20416;DHT22;10367;52.202;5.996;2023-04-06T00:50:09;1.60;99.90
20416;DHT22;10367;52.202;5.996;2023-04-06T00:52:38;1.50;99.90
20416;DHT22;10367;52.202;5.996;2023-04-06T00:55:08;1.40;99.90
20416;DHT22;10367;52.202;5.996;2023-04-06T00:57:36;1.30;99.90
20416;DHT22;10367;52.202;5.996;2023-04-06T01:00:06;1.30;99.90
20416;DHT22;10367;52.202;5.996;2023-04-06T01:02:35;1.30;99.90
20416;DHT22;10367;52.202;5.996;2023-04-06T01:05:05;1.40;99.90
20416;DHT22;10367;52.202;5.996;2023-04-06T01:07:36;1.50;99.90
20416;DHT22;10367;52.202;5.996;2023-04-06T01:10:05;1.50;99.90
20416;DHT22;10367;52.202;5.996;2023-04-06T01:12:34;1.60;99.90
20416;DHT22;10367;52.202;5.996;2023-04-06T01:15:04;1.50;99.90
20416;DHT22;10367;52.202;5.996;2023-04-06T01:17:34;1.30;99.90
20416;DHT22;10367;52.202;5.996;2023-04-06T01:20:03;1.10;99.90
20416;DHT22;10367;52.202;5.996;2023-04-06T01:22:34;1.10;99.90
20416;DHT22;10367;52.202;5.996;2023-04-06T01:25:06;1.10;99.90
20416;DHT22;10367;52.202;5.996;2023-04-06T01:27:35;1.20;99.90
20416;DHT22;10367;52.202;5.996;2023-04-06T01:30:05;1.20;99.90
20416;DHT22;10367;52.202;5.996;2023-04-06T01:32:34;1.10;99.90
20416;DHT22;10367;52.202;5.996;2023-04-06T01:35:03;1.20;99.90
20416;DHT22;10367;52.202;5.996;2023-04-06T01:37:34;1.20;99.90
20416;DHT22;10367;52.202;5.996;2023-04-06T01:40:03;1.20;99.90
20416;DHT22;10367;52.202;5.996;2023-04-06T01:42:33;1.10;99.90
20416;DHT22;10367;52.202;5.996;2023-04-06T01:45:01;1.10;99.90
20416;DHT22;10367;52.202;5.996;2023-04-06T01:47:30;1.00;99.90
20416;DHT22;10367;52.202;5.996;2023-04-06T01:49:59;1.00;99.90
20416;DHT22;10367;52.202;5.996;2023-04-06T01:52:27;1.00;99.90
20416;DHT22;10367;52.202;5.996;2023-04-06T01:54:58;1.00;99.90
20416;DHT22;10367;52.202;5.996;2023-04-06T01:57:26;1.00;99.90
20416;DHT22;10367;52.202;5.996;2023-04-06T01:59:55;1.00;99.90
20416;DHT22;10367;52.202;5.996;2023-04-06T02:02:24;1.00;99.90
20416;DHT22;10367;52.202;5.996;2023-04-06T02:04:53;1.00;99.90
20416;DHT22;10367;52.202;5.996;2023-04-06T02:07:22;1.00;99.90
20416;DHT22;10367;52.202;5.996;2023-04-06T02:09:54;0.90;99.90
20416;DHT22;10367;52.202;5.996;2023-04-06T02:12:24;0.90;99.90
20416;DHT22;10367;52.202;5.996;2023-04-06T02:14:53;0.90;99.90
20416;DHT22;10367;52.202;5.996;2023-04-06T02:17:22;0.90;99.90
20416;DHT22;10367;52.202;5.996;2023-04-06T02:19:51;0.80;99.90
20416;DHT22;10367;52.202;5.996;2023-04-06T02:22:19;0.90;99.90
20416;DHT22;10367;52.202;5.996;2023-04-06T02:24:48;0.70;99.90
20416;DHT22;10367;52.202;5.996;2023-04-06T02:27:17;0.60;99.90
20416;DHT22;10367;52.202;5.996;2023-04-06T02:29:47;0.70;99.90
20416;DHT22;10367;52.202;5.996;2023-04-06T02:32:16;0.80;99.90
20416;DHT22;10367;52.202;5.996;2023-04-06T02:34:45;0.80;99.90
20416;DHT22;10367;52.202;5.996;2023-04-06T02:37:14;0.90;99.90
20416;DHT22;10367;52.202;5.996;2023-04-06T02:39:42;0.80;99.90
20416;DHT22;10367;52.202;5.996;2023-04-06T02:42:11;0.80;99.90
20416;DHT22;10367;52.202;5.996;2023-04-06T02:44:42;0.70;99.90
20416;DHT22;10367;52.202;5.996;2023-04-06T02:47:12;0.80;99.90
20416;DHT22;10367;52.202;5.996;2023-04-06T02:49:41;0.80;99.90
20416;DHT22;10367;52.202;5.996;2023-04-06T02:52:10;0.90;99.90
20416;DHT22;10367;52.202;5.996;2023-04-06T02:54:38;1.00;99.90
20416;DHT22;10367;52.202;5.996;2023-04-06T02:57:08;1.00;99.90
20416;DHT22;10367;52.202;5.996;2023-04-06T02:59:36;0.90;99.90
20416;DHT22;10367;52.202;5.996;2023-04-06T03:02:06;0.80;99.90
20416;DHT22;10367;52.202;5.996;2023-04-06T03:04:36;0.90;99.90
20416;DHT22;10367;52.202;5.996;2023-04-06T03:07:04;1.00;99.90
20416;DHT22;10367;52.202;5.996;2023-04-06T03:09:33;1.10;99.90
20416;DHT22;10367;52.202;5.996;2023-04-06T03:12:02;1.10;99.90
20416;DHT22;10367;52.202;5.996;2023-04-06T03:14:36;1.20;99.90
20416;DHT22;10367;52.202;5.996;2023-04-06T03:17:04;1.20;99.90
20416;DHT22;10367;52.202;5.996;2023-04-06T03:19:33;1.20;99.90
20416;DHT22;10367;52.202;5.996;2023-04-06T03:22:04;1.20;99.90
20416;DHT22;10367;52.202;5.996;2023-04-06T03:24:32;1.20;99.90
20416;DHT22;10367;52.202;5.996;2023-04-06T03:27:01;1.20;99.90
20416;DHT22;10367;52.202;5.996;2023-04-06T03:29:30;1.20;99.90
20416;DHT22;10367;52.202;5.996;2023-04-06T03:31:59;1.00;99.90
20416;DHT22;10367;52.202;5.996;2023-04-06T03:34:28;0.90;99.90
20416;DHT22;10367;52.202;5.996;2023-04-06T03:36:56;1.00;99.90
20416;DHT22;10367;52.202;5.996;2023-04-06T03:39:38;1.10;99.90
20416;DHT22;10367;52.202;5.996;2023-04-06T03:42:06;1.00;99.90
20416;DHT22;10367;52.202;5.996;2023-04-06T03:44:36;1.00;99.90
20416;DHT22;10367;52.202;5.996;2023-04-06T03:47:04;1.00;99.90
20416;DHT22;10367;52.202;5.996;2023-04-06T03:49:33;1.10;99.90
20416;DHT22;10367;52.202;5.996;2023-04-06T03:52:02;1.10;99.90
20416;DHT22;10367;52.202;5.996;2023-04-06T03:54:31;1.10;99.90
20416;DHT22;10367;52.202;5.996;2023-04-06T03:57:01;1.20;99.90
20416;DHT22;10367;52.202;5.996;2023-04-06T03:59:30;1.20;99.90
20416;DHT22;10367;52.202;5.996;2023-04-06T04:01:58;1.20;99.90
20416;DHT22;10367;52.202;5.996;2023-04-06T04:04:27;1.20;99.90
20416;DHT22;10367;52.202;5.996;2023-04-06T04:06:56;1.30;99.90
20416;DHT22;10367;52.202;5.996;2023-04-06T04:09:25;1.40;99.90
20416;DHT22;10367;52.202;5.996;2023-04-06T04:11:56;1.30;99.90
20416;DHT22;10367;52.202;5.996;2023-04-06T04:14:26;1.40;99.90
20416;DHT22;10367;52.202;5.996;2023-04-06T04:16:54;1.40;99.90
20416;DHT22;10367;52.202;5.996;2023-04-06T04:19:23;1.40;99.90
20416;DHT22;10367;52.202;5.996;2023-04-06T04:21:52;1.40;99.90
20416;DHT22;10367;52.202;5.996;2023-04-06T04:24:21;1.40;99.90
20416;DHT22;10367;52.202;5.996;2023-04-06T04:26:49;1.40;99.90
20416;DHT22;10367;52.202;5.996;2023-04-06T04:29:18;1.40;99.90
20416;DHT22;10367;52.202;5.996;2023-04-06T04:31:50;1.40;99.90
20416;DHT22;10367;52.202;5.996;2023-04-06T04:34:19;1.40;99.90
20416;DHT22;10367;52.202;5.996;2023-04-06T04:36:51;1.40;99.90
20416;DHT22;10367;52.202;5.996;2023-04-06T04:39:19;1.40;99.90
20416;DHT22;10367;52.202;5.996;2023-04-06T04:41:48;1.50;99.90
20416;DHT22;10367;52.202;5.996;2023-04-06T04:44:17;1.60;99.90
20416;DHT22;10367;52.202;5.996;2023-04-06T04:46:46;1.70;99.90
20416;DHT22;10367;52.202;5.996;2023-04-06T04:49:16;1.70;99.90
20416;DHT22;10367;52.202;5.996;2023-04-06T04:51:44;1.70;99.90
20416;DHT22;10367;52.202;5.996;2023-04-06T04:54:13;1.70;99.90
20416;DHT22;10367;52.202;5.996;2023-04-06T04:56:42;1.80;99.90
20416;DHT22;10367;52.202;5.996;2023-04-06T04:59:11;1.80;99.90
20416;DHT22;10367;52.202;5.996;2023-04-06T05:01:40;1.80;99.90
20416;DHT22;10367;52.202;5.996;2023-04-06T05:04:23;1.80;99.90
20416;DHT22;10367;52.202;5.996;2023-04-06T05:07:02;1.90;99.90
20416;DHT22;10367;52.202;5.996;2023-04-06T05:09:31;1.90;99.90
20416;DHT22;10367;52.202;5.996;2023-04-06T05:12:00;1.90;99.90
20416;DHT22;10367;52.202;5.996;2023-04-06T05:14:29;1.90;99.90
20416;DHT22;10367;52.202;5.996;2023-04-06T05:17:01;2.00;99.90
20416;DHT22;10367;52.202;5.996;2023-04-06T05:19:32;2.10;99.90
20416;DHT22;10367;52.202;5.996;2023-04-06T05:22:00;2.10;99.90
20416;DHT22;10367;52.202;5.996;2023-04-06T05:24:29;2.10;99.90
20416;DHT22;10367;52.202;5.996;2023-04-06T05:26:58;2.10;99.90
20416;DHT22;10367;52.202;5.996;2023-04-06T05:29:28;2.20;99.90
20416;DHT22;10367;52.202;5.996;2023-04-06T05:31:57;2.20;99.90
20416;DHT22;10367;52.202;5.996;2023-04-06T05:34:26;2.20;99.90
20416;DHT22;10367;52.202;5.996;2023-04-06T05:36:56;2.30;99.90
20416;DHT22;10367;52.202;5.996;2023-04-06T05:39:25;2.40;99.90
20416;DHT22;10367;52.202;5.996;2023-04-06T05:41:54;2.40;99.90
20416;DHT22;10367;52.202;5.996;2023-04-06T05:44:23;2.50;99.90
20416;DHT22;10367;52.202;5.996;2023-04-06T05:46:52;2.60;99.90
20416;DHT22;10367;52.202;5.996;2023-04-06T05:49:21;2.60;99.90
20416;DHT22;10367;52.202;5.996;2023-04-06T05:51:50;2.70;99.90
20416;DHT22;10367;52.202;5.996;2023-04-06T05:54:20;2.80;99.90
20416;DHT22;10367;52.202;5.996;2023-04-06T05:56:49;2.80;99.90
20416;DHT22;10367;52.202;5.996;2023-04-06T05:59:20;2.80;99.90
20416;DHT22;10367;52.202;5.996;2023-04-06T06:01:51;2.90;99.90
20416;DHT22;10367;52.202;5.996;2023-04-06T06:04:20;2.90;99.90
20416;DHT22;10367;52.202;5.996;2023-04-06T06:06:48;3.00;99.90
20416;DHT22;10367;52.202;5.996;2023-04-06T06:09:38;3.00;99.90
20416;DHT22;10367;52.202;5.996;2023-04-06T06:12:07;3.00;99.90
20416;DHT22;10367;52.202;5.996;2023-04-06T06:14:38;3.10;99.90
20416;DHT22;10367;52.202;5.996;2023-04-06T06:17:08;3.20;99.90
20416;DHT22;10367;52.202;5.996;2023-04-06T06:19:37;3.30;99.90
20416;DHT22;10367;52.202;5.996;2023-04-06T06:22:07;3.40;99.90
20416;DHT22;10367;52.202;5.996;2023-04-06T06:24:36;3.50;99.90
20416;DHT22;10367;52.202;5.996;2023-04-06T06:27:06;3.50;99.90
20416;DHT22;10367;52.202;5.996;2023-04-06T06:29:39;3.70;99.90
20416;DHT22;10367;52.202;5.996;2023-04-06T06:32:07;3.90;99.90
20416;DHT22;10367;52.202;5.996;2023-04-06T06:34:38;4.00;99.90
20416;DHT22;10367;52.202;5.996;2023-04-06T06:37:06;4.20;99.90
20416;DHT22;10367;52.202;5.996;2023-04-06T06:39:38;4.40;99.90
20416;DHT22;10367;52.202;5.996;2023-04-06T06:42:09;4.50;99.90
20416;DHT22;10367;52.202;5.996;2023-04-06T06:44:40;4.60;99.90
20416;DHT22;10367;52.202;5.996;2023-04-06T06:47:09;4.70;99.90
20416;DHT22;10367;52.202;5.996;2023-04-06T06:49:38;4.70;99.90
20416;DHT22;10367;52.202;5.996;2023-04-06T06:52:07;4.70;99.90
20416;DHT22;10367;52.202;5.996;2023-04-06T06:54:36;4.70;99.90
20416;DHT22;10367;52.202;5.996;2023-04-06T06:57:04;4.70;99.90
20416;DHT22;10367;52.202;5.996;2023-04-06T06:59:35;4.80;99.90
20416;DHT22;10367;52.202;5.996;2023-04-06T07:02:04;4.80;99.90
20416;DHT22;10367;52.202;5.996;2023-04-06T07:04:33;4.90;99.90
20416;DHT22;10367;52.202;5.996;2023-04-06T07:07:02;5.00;99.90
20416;DHT22;10367;52.202;5.996;2023-04-06T07:09:31;5.10;99.90
20416;DHT22;10367;52.202;5.996;2023-04-06T07:12:01;5.20;99.90
20416;DHT22;10367;52.202;5.996;2023-04-06T07:14:30;5.40;99.90
20416;DHT22;10367;52.202;5.996;2023-04-06T07:17:00;5.60;99.90
20416;DHT22;10367;52.202;5.996;2023-04-06T07:19:29;5.70;99.90
20416;DHT22;10367;52.202;5.996;2023-04-06T07:21:58;5.90;99.90
20416;DHT22;10367;52.202;5.996;2023-04-06T07:24:28;6.10;99.90
20416;DHT22;10367;52.202;5.996;2023-04-06T07:26:58;6.20;99.90
20416;DHT22;10367;52.202;5.996;2023-04-06T07:29:27;6.30;99.90
20416;DHT22;10367;52.202;5.996;2023-04-06T07:31:56;6.40;99.90
20416;DHT22;10367;52.202;5.996;2023-04-06T07:34:27;6.50;99.90
20416;DHT22;10367;52.202;5.996;2023-04-06T07:36:55;6.70;99.90
20416;DHT22;10367;52.202;5.996;2023-04-06T07:39:25;6.80;99.90
20416;DHT22;10367;52.202;5.996;2023-04-06T07:41:54;7.00;99.90
20416;DHT22;10367;52.202;5.996;2023-04-06T07:44:23;7.10;99.90
20416;DHT22;10367;52.202;5.996;2023-04-06T07:46:52;7.30;99.90
20416;DHT22;10367;52.202;5.996;2023-04-06T07:49:21;7.30;99.90
20416;DHT22;10367;52.202;5.996;2023-04-06T07:51:51;7.40;99.90
20416;DHT22;10367;52.202;5.996;2023-04-06T07:54:20;7.50;99.90
20416;DHT22;10367;52.202;5.996;2023-04-06T07:56:49;7.60;99.90
20416;DHT22;10367;52.202;5.996;2023-04-06T07:59:18;7.70;99.90
20416;DHT22;10367;52.202;5.996;2023-04-06T08:01:47;7.90;99.90
20416;DHT22;10367;52.202;5.996;2023-04-06T08:04:16;7.90;99.90
20416;DHT22;10367;52.202;5.996;2023-04-06T08:06:45;8.00;99.90
20416;DHT22;10367;52.202;5.996;2023-04-06T08:09:15;8.10;99.90
20416;DHT22;10367;52.202;5.996;2023-04-06T08:11:44;8.30;99.90
20416;DHT22;10367;52.202;5.996;2023-04-06T08:14:13;8.40;99.90
20416;DHT22;10367;52.202;5.996;2023-04-06T08:16:42;8.50;99.90
20416;DHT22;10367;52.202;5.996;2023-04-06T08:19:11;8.60;99.90
20416;DHT22;10367;52.202;5.996;2023-04-06T08:21:40;8.70;99.90
20416;DHT22;10367;52.202;5.996;2023-04-06T08:24:10;8.70;99.90
20416;DHT22;10367;52.202;5.996;2023-04-06T08:26:40;8.70;99.90
20416;DHT22;10367;52.202;5.996;2023-04-06T08:29:09;8.80;99.90
20416;DHT22;10367;52.202;5.996;2023-04-06T08:31:38;8.90;99.90
20416;DHT22;10367;52.202;5.996;2023-04-06T08:34:07;9.00;99.90
20416;DHT22;10367;52.202;5.996;2023-04-06T08:36:40;9.10;99.90
20416;DHT22;10367;52.202;5.996;2023-04-06T08:39:09;9.10;99.90
20416;DHT22;10367;52.202;5.996;2023-04-06T08:41:39;9.20;99.90
20416;DHT22;10367;52.202;5.996;2023-04-06T08:44:10;9.30;99.90
20416;DHT22;10367;52.202;5.996;2023-04-06T08:46:39;9.30;99.90
20416;DHT22;10367;52.202;5.996;2023-04-06T08:49:08;9.40;99.90
20416;DHT22;10367;52.202;5.996;2023-04-06T08:51:37;9.50;99.90
20416;DHT22;10367;52.202;5.996;2023-04-06T08:54:06;9.60;99.90
20416;DHT22;10367;52.202;5.996;2023-04-06T08:56:55;9.70;99.90
20416;DHT22;10367;52.202;5.996;2023-04-06T08:59:25;9.80;99.90
20416;DHT22;10367;52.202;5.996;2023-04-06T09:01:54;10.00;99.90
20416;DHT22;10367;52.202;5.996;2023-04-06T09:04:24;10.10;99.90
20416;DHT22;10367;52.202;5.996;2023-04-06T09:06:53;10.20;99.90
20416;DHT22;10367;52.202;5.996;2023-04-06T09:09:22;10.50;99.90
20416;DHT22;10367;52.202;5.996;2023-04-06T09:11:52;10.60;99.90
20416;DHT22;10367;52.202;5.996;2023-04-06T09:14:35;10.70;99.90
20416;DHT22;10367;52.202;5.996;2023-04-06T09:17:05;10.80;99.90
20416;DHT22;10367;52.202;5.996;2023-04-06T09:19:45;10.90;99.90
20416;DHT22;10367;52.202;5.996;2023-04-06T09:22:14;10.90;99.90
20416;DHT22;10367;52.202;5.996;2023-04-06T09:24:44;10.90;99.90
20416;DHT22;10367;52.202;5.996;2023-04-06T09:27:14;11.00;99.90
20416;DHT22;10367;52.202;5.996;2023-04-06T09:29:44;11.10;99.90
20416;DHT22;10367;52.202;5.996;2023-04-06T09:32:13;11.20;99.90
20416;DHT22;10367;52.202;5.996;2023-04-06T09:34:44;11.40;99.90
20416;DHT22;10367;52.202;5.996;2023-04-06T09:37:18;11.40;99.90
20416;DHT22;10367;52.202;5.996;2023-04-06T09:39:47;11.50;99.90
20416;DHT22;10367;52.202;5.996;2023-04-06T09:42:24;11.60;99.90
20416;DHT22;10367;52.202;5.996;2023-04-06T09:44:55;11.70;99.90
20416;DHT22;10367;52.202;5.996;2023-04-06T09:47:24;11.90;99.90
20416;DHT22;10367;52.202;5.996;2023-04-06T09:49:57;12.10;99.90
20416;DHT22;10367;52.202;5.996;2023-04-06T09:52:29;12.20;99.90
20416;DHT22;10367;52.202;5.996;2023-04-06T09:55:02;12.20;99.90
20416;DHT22;10367;52.202;5.996;2023-04-06T09:57:35;12.40;99.90
20416;DHT22;10367;52.202;5.996;2023-04-06T10:00:08;12.70;99.90
20416;DHT22;10367;52.202;5.996;2023-04-06T10:02:44;12.80;99.90
20416;DHT22;10367;52.202;5.996;2023-04-06T10:05:19;12.70;99.90
20416;DHT22;10367;52.202;5.996;2023-04-06T10:07:51;12.60;99.90
20416;DHT22;10367;52.202;5.996;2023-04-06T10:10:27;12.70;99.90
20416;DHT22;10367;52.202;5.996;2023-04-06T10:12:56;12.80;99.90
20416;DHT22;10367;52.202;5.996;2023-04-06T10:15:28;12.90;99.90
20416;DHT22;10367;52.202;5.996;2023-04-06T10:17:57;13.00;99.90
20416;DHT22;10367;52.202;5.996;2023-04-06T10:20:29;13.10;99.90
20416;DHT22;10367;52.202;5.996;2023-04-06T10:23:11;13.10;99.90
20416;DHT22;10367;52.202;5.996;2023-04-06T10:25:52;13.00;99.90
20416;DHT22;10367;52.202;5.996;2023-04-06T10:28:22;13.00;99.90
20416;DHT22;10367;52.202;5.996;2023-04-06T10:30:58;13.00;99.90
20416;DHT22;10367;52.202;5.996;2023-04-06T10:33:28;12.90;99.90
20416;DHT22;10367;52.202;5.996;2023-04-06T10:35:57;13.00;99.90
20416;DHT22;10367;52.202;5.996;2023-04-06T10:38:36;13.10;99.90
20416;DHT22;10367;52.202;5.996;2023-04-06T10:41:09;13.10;99.90
20416;DHT22;10367;52.202;5.996;2023-04-06T10:43:41;13.10;99.90
20416;DHT22;10367;52.202;5.996;2023-04-06T10:46:11;13.10;99.90
20416;DHT22;10367;52.202;5.996;2023-04-06T10:48:41;12.90;99.90
20416;DHT22;10367;52.202;5.996;2023-04-06T10:51:12;13.00;99.90
20416;DHT22;10367;52.202;5.996;2023-04-06T10:53:42;13.00;99.90
20416;DHT22;10367;52.202;5.996;2023-04-06T10:56:13;12.90;99.90
20416;DHT22;10367;52.202;5.996;2023-04-06T10:58:44;12.80;99.90
20416;DHT22;10367;52.202;5.996;2023-04-06T11:01:17;12.80;99.90
20416;DHT22;10367;52.202;5.996;2023-04-06T11:03:47;12.90;99.90
20416;DHT22;10367;52.202;5.996;2023-04-06T11:06:19;12.90;99.90
20416;DHT22;10367;52.202;5.996;2023-04-06T11:08:49;13.00;99.90
20416;DHT22;10367;52.202;5.996;2023-04-06T11:11:19;13.00;99.90
20416;DHT22;10367;52.202;5.996;2023-04-06T11:13:50;13.10;99.90
20416;DHT22;10367;52.202;5.996;2023-04-06T11:16:21;13.00;99.90
20416;DHT22;10367;52.202;5.996;2023-04-06T11:18:52;13.00;99.90
20416;DHT22;10367;52.202;5.996;2023-04-06T11:21:33;12.80;99.90
20416;DHT22;10367;52.202;5.996;2023-04-06T11:24:10;12.90;99.90
20416;DHT22;10367;52.202;5.996;2023-04-06T11:26:40;12.90;99.90
20416;DHT22;10367;52.202;5.996;2023-04-06T11:29:11;13.00;99.90
20416;DHT22;10367;52.202;5.996;2023-04-06T11:31:44;13.10;99.90
20416;DHT22;10367;52.202;5.996;2023-04-06T11:34:19;13.10;99.90
20416;DHT22;10367;52.202;5.996;2023-04-06T11:36:53;13.10;99.90
20416;DHT22;10367;52.202;5.996;2023-04-06T11:39:25;13.10;99.90
20416;DHT22;10367;52.202;5.996;2023-04-06T11:41:56;13.10;99.90
20416;DHT22;10367;52.202;5.996;2023-04-06T11:44:31;13.10;99.90
20416;DHT22;10367;52.202;5.996;2023-04-06T11:47:02;13.10;99.90
20416;DHT22;10367;52.202;5.996;2023-04-06T11:49:32;13.10;99.90
20416;DHT22;10367;52.202;5.996;2023-04-06T11:52:01;12.90;99.90
20416;DHT22;10367;52.202;5.996;2023-04-06T11:54:50;12.70;99.90
20416;DHT22;10367;52.202;5.996;2023-04-06T11:57:20;12.60;99.90
20416;DHT22;10367;52.202;5.996;2023-04-06T11:59:50;12.60;99.90
20416;DHT22;10367;52.202;5.996;2023-04-06T12:02:20;12.60;99.90
20416;DHT22;10367;52.202;5.996;2023-04-06T12:04:49;12.60;99.90
20416;DHT22;10367;52.202;5.996;2023-04-06T12:07:18;12.60;99.90
20416;DHT22;10367;52.202;5.996;2023-04-06T12:09:47;12.60;99.90
20416;DHT22;10367;52.202;5.996;2023-04-06T12:12:16;12.50;99.90
20416;DHT22;10367;52.202;5.996;2023-04-06T12:14:45;12.50;99.90
20416;DHT22;10367;52.202;5.996;2023-04-06T12:17:14;12.50;99.90
20416;DHT22;10367;52.202;5.996;2023-04-06T12:19:44;12.40;99.90
20416;DHT22;10367;52.202;5.996;2023-04-06T12:22:13;12.40;99.90
20416;DHT22;10367;52.202;5.996;2023-04-06T12:24:42;12.30;99.90
20416;DHT22;10367;52.202;5.996;2023-04-06T12:27:10;12.20;99.90
20416;DHT22;10367;52.202;5.996;2023-04-06T12:29:39;12.10;99.90
20416;DHT22;10367;52.202;5.996;2023-04-06T12:32:08;12.00;99.90
20416;DHT22;10367;52.202;5.996;2023-04-06T12:34:37;11.90;99.90
20416;DHT22;10367;52.202;5.996;2023-04-06T12:38:22;11.70;99.90
20416;DHT22;10367;52.202;5.996;2023-04-06T12:40:53;11.50;99.90
20416;DHT22;10367;52.202;5.996;2023-04-06T12:43:26;11.50;99.90
20416;DHT22;10367;52.202;5.996;2023-04-06T12:46:06;11.50;99.90
20416;DHT22;10367;52.202;5.996;2023-04-06T12:49:01;11.30;99.90
20416;DHT22;10367;52.202;5.996;2023-04-06T12:51:32;11.40;99.90
20416;DHT22;10367;52.202;5.996;2023-04-06T12:54:06;11.30;99.90
20416;DHT22;10367;52.202;5.996;2023-04-06T12:56:40;11.30;99.90
20416;DHT22;10367;52.202;5.996;2023-04-06T12:59:16;11.30;99.90
20416;DHT22;10367;52.202;5.996;2023-04-06T13:02:00;11.20;99.90
20416;DHT22;10367;52.202;5.996;2023-04-06T13:04:44;11.10;99.90
20416;DHT22;10367;52.202;5.996;2023-04-06T13:07:24;11.00;99.90
20416;DHT22;10367;52.202;5.996;2023-04-06T13:10:18;10.90;99.90
20416;DHT22;10367;52.202;5.996;2023-04-06T13:12:53;10.80;99.90
20416;DHT22;10367;52.202;5.996;2023-04-06T13:15:24;10.90;99.90
20416;DHT22;10367;52.202;5.996;2023-04-06T13:17:56;10.90;99.90
20416;DHT22;10367;52.202;5.996;2023-04-06T13:20:26;11.00;99.90
20416;DHT22;10367;52.202;5.996;2023-04-06T13:22:57;11.00;99.90
20416;DHT22;10367;52.202;5.996;2023-04-06T13:26:02;11.00;99.90
20416;DHT22;10367;52.202;5.996;2023-04-06T13:28:39;10.90;99.90
20416;DHT22;10367;52.202;5.996;2023-04-06T13:31:22;10.80;99.90
20416;DHT22;10367;52.202;5.996;2023-04-06T13:34:15;10.80;99.90
20416;DHT22;10367;52.202;5.996;2023-04-06T13:36:51;10.80;99.90
20416;DHT22;10367;52.202;5.996;2023-04-06T13:39:39;10.80;99.90
20416;DHT22;10367;52.202;5.996;2023-04-06T13:42:39;10.70;99.90
20416;DHT22;10367;52.202;5.996;2023-04-06T13:48:40;10.50;99.90
20416;DHT22;10367;52.202;5.996;2023-04-06T13:51:50;10.40;99.90
20416;DHT22;10367;52.202;5.996;2023-04-06T13:54:55;10.40;99.90
20416;DHT22;10367;52.202;5.996;2023-04-06T13:57:59;10.20;99.90
20416;DHT22;10367;52.202;5.996;2023-04-06T14:00:47;10.10;99.90
20416;DHT22;10367;52.202;5.996;2023-04-06T14:03:52;10.00;99.90
20416;DHT22;10367;52.202;5.996;2023-04-06T14:06:40;9.90;99.90
20416;DHT22;10367;52.202;5.996;2023-04-06T14:09:14;9.80;99.90
20416;DHT22;10367;52.202;5.996;2023-04-06T14:11:56;9.70;99.90
20416;DHT22;10367;52.202;5.996;2023-04-06T14:14:31;9.50;99.90
20416;DHT22;10367;52.202;5.996;2023-04-06T14:17:02;9.50;99.90
20416;DHT22;10367;52.202;5.996;2023-04-06T14:19:31;9.40;99.90
20416;DHT22;10367;52.202;5.996;2023-04-06T14:22:08;9.40;99.90
20416;DHT22;10367;52.202;5.996;2023-04-06T14:24:51;9.40;99.90
20416;DHT22;10367;52.202;5.996;2023-04-06T14:27:24;9.40;99.90
20416;DHT22;10367;52.202;5.996;2023-04-06T14:29:58;9.50;99.90
20416;DHT22;10367;52.202;5.996;2023-04-06T14:32:34;9.40;99.90
20416;DHT22;10367;52.202;5.996;2023-04-06T14:35:07;9.40;99.90
20416;DHT22;10367;52.202;5.996;2023-04-06T14:37:38;9.30;99.90
20416;DHT22;10367;52.202;5.996;2023-04-06T14:40:08;9.40;99.90
20416;DHT22;10367;52.202;5.996;2023-04-06T14:42:50;9.30;99.90
20416;DHT22;10367;52.202;5.996;2023-04-06T14:45:21;9.40;99.90
20416;DHT22;10367;52.202;5.996;2023-04-06T14:47:53;9.40;99.90
20416;DHT22;10367;52.202;5.996;2023-04-06T14:50:22;9.40;99.90
20416;DHT22;10367;52.202;5.996;2023-04-06T14:52:52;9.40;99.90
20416;DHT22;10367;52.202;5.996;2023-04-06T14:55:22;9.30;99.90
20416;DHT22;10367;52.202;5.996;2023-04-06T14:57:51;9.20;99.90
20416;DHT22;10367;52.202;5.996;2023-04-06T15:00:26;9.20;99.90
20416;DHT22;10367;52.202;5.996;2023-04-06T15:06:00;9.10;99.90
20416;DHT22;10367;52.202;5.996;2023-04-06T15:08:30;9.00;99.90
20416;DHT22;10367;52.202;5.996;2023-04-06T15:10:59;9.00;99.90
20416;DHT22;10367;52.202;5.996;2023-04-06T15:13:28;9.00;99.90
20416;DHT22;10367;52.202;5.996;2023-04-06T15:15:59;9.00;99.90
20416;DHT22;10367;52.202;5.996;2023-04-06T15:18:28;9.10;99.90
20416;DHT22;10367;52.202;5.996;2023-04-06T15:20:57;9.00;99.90
20416;DHT22;10367;52.202;5.996;2023-04-06T15:23:26;9.10;99.90
20416;DHT22;10367;52.202;5.996;2023-04-06T15:25:57;9.00;99.90
20416;DHT22;10367;52.202;5.996;2023-04-06T15:28:26;9.00;99.90
20416;DHT22;10367;52.202;5.996;2023-04-06T15:30:55;9.00;99.90
20416;DHT22;10367;52.202;5.996;2023-04-06T15:33:26;9.10;99.90
20416;DHT22;10367;52.202;5.996;2023-04-06T15:35:55;9.10;99.90
20416;DHT22;10367;52.202;5.996;2023-04-06T15:38:26;9.10;99.90
20416;DHT22;10367;52.202;5.996;2023-04-06T15:40:56;9.00;99.90
20416;DHT22;10367;52.202;5.996;2023-04-06T15:43:25;8.90;99.90
20416;DHT22;10367;52.202;5.996;2023-04-06T15:45:56;8.80;99.90
20416;DHT22;10367;52.202;5.996;2023-04-06T15:48:26;8.80;99.90
20416;DHT22;10367;52.202;5.996;2023-04-06T15:50:58;8.70;99.90
20416;DHT22;10367;52.202;5.996;2023-04-06T15:53:27;8.70;99.90
20416;DHT22;10367;52.202;5.996;2023-04-06T15:55:58;8.70;99.90
20416;DHT22;10367;52.202;5.996;2023-04-06T15:58:27;8.60;99.90
20416;DHT22;10367;52.202;5.996;2023-04-06T16:01:00;8.60;99.90
20416;DHT22;10367;52.202;5.996;2023-04-06T16:03:30;8.60;99.90
20416;DHT22;10367;52.202;5.996;2023-04-06T16:06:02;8.60;99.90
20416;DHT22;10367;52.202;5.996;2023-04-06T16:08:36;8.60;99.90
20416;DHT22;10367;52.202;5.996;2023-04-06T16:11:05;8.60;99.90
20416;DHT22;10367;52.202;5.996;2023-04-06T16:13:35;8.60;99.90
20416;DHT22;10367;52.202;5.996;2023-04-06T16:16:04;8.60;99.90